Time;durP1;ratioP1;P1;durP2;ratioP2;P2;SDS_P1;SDS_P2;PMS_P1;PMS_P2;Temp;Humidity;BMP_temperature;BMP_pressure;BME280_temperature;BME280_humidity;BME280_pressure;Samples;Min_cycle;Max_cycle;Signal;HPM_P1;HPM_P2
2022/12/13 00:00:49;;;;;;;1.25;0.50;;;;;;;6.41;78.68;99010.69;3143691;28;20067;-67
2022/12/13 00:02:20;;;;;;;0.57;0.30;;;;;;;6.44;78.42;99007.97;3134231;28;20053;-67
2022/12/13 00:03:53;;;;;;;0.22;0.20;;;;;;;6.40;78.14;99003.84;3138604;28;20045;-66
2022/12/13 00:05:25;;;;;;;0.60;0.30;;;;;;;6.38;77.89;99013.41;3143499;28;20431;-67
2022/12/13 00:06:57;;;;;;;0.55;0.30;;;;;;;6.26;77.69;98991.47;3137008;28;20049;-67
2022/12/13 00:08:29;;;;;;;0.45;0.30;;;;;;;5.88;77.40;98936.13;3140932;28;20193;-67
2022/12/13 00:10:01;;;;;;;1.70;0.70;;;;;;;6.26;77.01;99013.91;3143764;28;20048;-67
2022/12/13 00:11:33;;;;;;;0.98;0.52;;;;;;;6.04;76.47;98988.91;3138952;28;20315;-66
2022/12/13 00:13:05;;;;;;;0.60;0.35;;;;;;;6.18;76.49;99003.84;3132008;28;20538;-67
2022/12/13 00:14:39;;;;;;;0.88;0.43;;;;;;;6.18;76.36;99006.44;3143347;28;20579;-66
2022/12/13 00:16:13;;;;;;;0.93;0.32;;;;;;;6.15;75.69;99010.03;3143535;28;20063;-66
2022/12/13 00:17:45;;;;;;;1.88;0.77;;;;;;;6.16;75.21;99021.19;3139006;28;20071;-65
2022/12/13 00:19:17;;;;;;;0.73;0.45;;;;;;;6.16;75.15;99028.97;3133456;28;20053;-66
2022/12/13 00:20:49;;;;;;;3.53;0.93;;;;;;;6.13;74.93;99022.16;3143716;28;20053;-66
2022/12/13 00:22:21;;;;;;;2.20;0.80;;;;;;;6.12;74.81;99036.00;3143507;28;20052;-65
2022/12/13 00:23:53;;;;;;;1.23;0.82;;;;;;;6.13;74.89;99029.91;3130931;28;20106;-65
2022/12/13 00:25:25;;;;;;;1.00;0.50;;;;;;;5.75;74.51;98976.25;3142192;28;20422;-66
2022/12/13 00:26:56;;;;;;;1.50;0.80;;;;;;;6.14;74.29;99035.91;3138834;28;20070;-66
2022/12/13 00:28:27;;;;;;;1.48;0.80;;;;;;;5.88;74.28;99003.28;3141585;28;20047;-66
2022/12/13 00:30:00;;;;;;;1.30;0.90;;;;;;;6.11;74.19;99048.97;3143116;28;20163;-66
2022/12/13 00:31:33;;;;;;;2.10;0.98;;;;;;;6.10;74.19;99047.28;3143789;28;20048;-65
2022/12/13 00:33:05;;;;;;;2.90;1.00;;;;;;;6.07;74.01;99045.66;3143041;28;20044;-66
2022/12/13 00:34:37;;;;;;;2.33;0.85;;;;;;;6.09;74.05;99048.16;3143641;28;20452;-66
2022/12/13 00:36:09;;;;;;;1.98;1.00;;;;;;;5.97;73.90;99033.16;3143629;28;20048;-65
2022/12/13 00:37:41;;;;;;;1.65;1.25;;;;;;;6.03;74.08;99035.50;3152594;28;20447;-66
2022/12/13 00:39:15;;;;;;;3.60;0.82;;;;;;;5.97;73.92;99033.16;3146351;28;20097;-66
2022/12/13 00:40:47;;;;;;;1.13;0.70;;;;;;;6.01;73.72;99045.91;3145260;28;20537;-66
2022/12/13 00:42:19;;;;;;;1.10;0.75;;;;;;;5.98;73.79;99046.03;3145508;28;20066;-66
2022/12/13 00:43:50;;;;;;;1.17;0.60;;;;;;;5.80;73.82;99028.63;3145659;28;20045;-67
2022/12/13 00:45:24;;;;;;;1.10;0.70;;;;;;;5.91;73.89;99042.78;3145434;28;20540;-64
2022/12/13 00:46:56;;;;;;;1.38;0.60;;;;;;;5.39;73.95;98975.03;3145640;28;20064;-65
2022/12/13 00:48:27;;;;;;;2.78;0.77;;;;;;;5.84;74.04;99058.59;3145871;28;20048;-65
2022/12/13 00:49:59;;;;;;;1.10;0.60;;;;;;;5.82;74.26;99052.63;3145344;28;20483;-68
2022/12/13 00:51:33;;;;;;;1.02;0.80;;;;;;;5.79;74.37;99045.00;3145360;28;20472;-65
2022/12/13 00:53:06;;;;;;;1.20;0.70;;;;;;;5.16;74.62;98957.78;3145733;28;20044;-66
2022/12/13 00:54:37;;;;;;;1.98;0.80;;;;;;;5.72;74.92;99054.72;3145754;28;20040;-67
2022/12/13 00:56:12;;;;;;;1.73;0.90;;;;;;;5.69;74.89;99060.84;3145551;28;20109;-65
2022/12/13 00:57:44;;;;;;;1.17;0.80;;;;;;;5.60;75.12;99045.69;3145454;28;20577;-66
2022/12/13 00:59:16;;;;;;;1.40;0.80;;;;;;;5.64;75.29;99049.00;3145298;28;20101;-66
2022/12/13 01:00:49;;;;;;;1.83;0.90;;;;;;;5.60;75.43;99048.28;3145486;28;20549;-66
2022/12/13 01:02:21;;;;;;;1.67;0.63;;;;;;;5.61;75.68;99049.94;3145701;28;20613;-66
2022/12/13 01:03:56;;;;;;;1.30;0.73;;;;;;;5.62;75.81;99051.66;3144739;28;20499;-66
2022/12/13 01:05:28;;;;;;;1.20;0.70;;;;;;;5.56;75.82;99059.63;3145536;28;20163;-66
2022/12/13 01:07:00;;;;;;;1.42;0.60;;;;;;;5.53;75.77;99048.53;3145755;28;20063;-66
2022/12/13 01:08:31;;;;;;;1.25;0.68;;;;;;;5.43;75.86;99035.97;3145064;28;20061;-65
2022/12/13 01:10:04;;;;;;;2.80;0.93;;;;;;;5.15;75.80;98989.66;3145431;28;20044;-66
2022/12/13 01:11:36;;;;;;;1.33;0.87;;;;;;;5.55;75.86;99052.75;3140163;28;20144;-65
2022/12/13 01:13:08;;;;;;;1.33;0.82;;;;;;;5.56;75.99;99054.47;3135473;28;20105;-65
2022/12/13 01:14:41;;;;;;;1.20;0.68;;;;;;;5.56;75.61;99054.47;3135558;28;20052;-65
2022/12/13 01:16:15;;;;;;;1.35;0.90;;;;;;;5.50;75.62;99049.50;3126589;28;20052;-66
2022/12/13 01:17:48;;;;;;;1.70;0.80;;;;;;;5.57;75.59;99063.88;3123208;28;20545;-65
2022/12/13 01:19:20;;;;;;;3.55;0.90;;;;;;;5.56;75.43;99069.94;3136087;28;20135;-65
2022/12/13 01:20:58;;;;;;;1.90;1.00;;;;;;;5.57;75.40;99058.72;3135472;28;20052;-65
2022/12/13 01:22:30;;;;;;;1.92;1.15;;;;;;;5.59;75.21;99067.25;3134991;28;20056;-65
2022/12/13 01:24:03;;;;;;;2.55;0.90;;;;;;;5.58;75.08;99073.31;3135531;28;20048;-65
2022/12/13 01:25:37;;;;;;;1.83;0.98;;;;;;;5.59;75.03;99068.97;3136403;28;20063;-65
2022/12/13 01:27:09;;;;;;;1.05;0.55;;;;;;;5.58;74.97;99062.97;3136090;28;20621;-65
2022/12/13 01:28:42;;;;;;;1.65;0.80;;;;;;;5.56;74.69;99063.91;3135103;28;20106;-66
2022/12/13 01:30:14;;;;;;;2.05;1.10;;;;;;;5.60;74.64;99079.25;3134868;28;20528;-66
2022/12/13 01:31:48;;;;;;;2.30;0.98;;;;;;;5.47;74.56;99062.50;3135272;28;20055;-66
2022/12/13 01:33:20;;;;;;;2.70;1.20;;;;;;;5.60;74.36;99075.84;3135702;28;20076;-66
2022/12/13 01:34:52;;;;;;;2.80;1.20;;;;;;;5.61;74.30;99078.34;3136235;28;20139;-66
2022/12/13 01:36:25;;;;;;;3.42;1.30;;;;;;;5.63;74.18;99076.56;3135627;28;20102;-66
2022/12/13 01:37:57;;;;;;;2.67;1.25;;;;;;;5.64;74.01;99078.25;3145034;28;20135;-66
2022/12/13 01:39:29;;;;;;;2.83;1.55;;;;;;;5.42;73.83;99036.88;3138163;28;20139;-66
2022/12/13 01:41:04;;;;;;;2.63;1.48;;;;;;;5.22;73.34;99005.78;3136136;28;20048;-65
2022/12/13 01:42:37;;;;;;;2.42;1.38;;;;;;;5.63;73.18;99068.81;3135719;28;20052;-65
2022/12/13 01:44:43;;;;;;;1.98;1.25;;;;;;;5.58;72.22;99075.06;3134722;28;20061;-65
2022/12/13 01:46:16;;;;;;;2.97;1.88;;;;;;;5.54;72.00;99087.25;3135194;28;20130;-66
2022/12/13 01:47:51;;;;;;;;;;;;;;;5.47;71.81;99078.00;3136125;28;20517;-65
2022/12/13 01:49:23;;;;;;;3.13;1.40;;;;;;;5.45;71.51;99072.91;3135864;28;19973;-65
2022/12/13 01:51:01;;;;;;;2.72;1.40;;;;;;;4.71;71.19;98945.66;3135988;28;20074;-65
2022/12/13 01:52:34;;;;;;;3.15;1.80;;;;;;;5.48;71.17;99071.97;3134979;28;20113;-66
2022/12/13 01:54:10;;;;;;;2.08;1.38;;;;;;;5.48;70.88;99061.63;3135342;28;20517;-66
2022/12/13 01:55:45;;;;;;;2.63;1.25;;;;;;;5.47;70.55;99072.84;3136137;28;20048;-66
2022/12/13 01:57:19;;;;;;;2.15;1.23;;;;;;;5.46;70.01;99078.91;3134908;28;20150;-65
2022/12/13 01:58:53;;;;;;;2.25;1.38;;;;;;;5.28;69.41;99054.59;3134852;28;20562;-66
2022/12/13 02:00:26;;;;;;;2.83;1.48;;;;;;;5.40;69.49;99086.88;3134066;28;20052;-65
2022/12/13 02:01:58;;;;;;;2.90;1.60;;;;;;;5.37;69.14;99081.81;3134940;28;20063;-65
2022/12/13 02:03:33;;;;;;;2.53;1.27;;;;;;;5.35;68.80;99081.03;3135206;28;20044;-65
2022/12/13 02:05:11;;;;;;;2.25;1.60;;;;;;;5.31;68.26;99075.13;3135191;28;20494;-65
2022/12/13 02:06:45;;;;;;;2.45;1.40;;;;;;;5.29;68.28;99083.81;3135011;28;20138;-65
2022/12/13 02:08:19;;;;;;;2.20;1.30;;;;;;;5.29;67.95;99073.50;3134847;28;20509;-65
2022/12/13 02:09:52;;;;;;;2.75;1.23;;;;;;;5.27;67.69;99085.66;3135703;28;20986;-65
2022/12/13 02:11:25;;;;;;;2.10;1.45;;;;;;;5.24;67.65;99091.75;3135309;28;20052;-65
2022/12/13 02:12:57;;;;;;;2.70;1.35;;;;;;;5.18;67.63;99086.81;3135728;28;20052;-65
2022/12/13 02:14:29;;;;;;;2.30;1.63;;;;;;;5.18;67.68;99097.13;3135443;28;20508;-65
2022/12/13 02:16:08;;;;;;;3.95;1.30;;;;;;;5.16;67.39;99091.16;3135856;28;20109;-65
2022/12/13 02:17:56;;;;;;;2.60;1.45;;;;;;;5.14;67.29;99098.09;3136000;28;20132;-67
2022/12/13 02:20:14;;;;;;;4.05;1.42;;;;;;;4.94;67.54;99088.44;3123967;28;20132;-65
2022/12/13 02:21:58;;;;;;;2.55;1.63;;;;;;;5.09;68.15;99107.75;3127096;28;20052;-66
2022/12/13 02:24:06;;;;;;;3.38;1.77;;;;;;;5.06;68.76;99116.44;3135869;28;20048;-66
2022/12/13 02:25:58;;;;;;;2.38;1.67;;;;;;;4.35;69.06;99004.47;3135640;28;20052;-66
2022/12/13 02:27:51;;;;;;;3.45;1.90;;;;;;;4.97;69.26;99116.75;3135943;28;20056;-65
2022/12/13 02:30:14;;;;;;;4.55;1.70;;;;;;;4.90;69.11;99126.41;3135813;28;20591;-66
2022/12/13 02:31:55;;;;;;;3.67;1.85;;;;;;;4.84;69.32;99133.53;3125266;28;20530;-66
2022/12/13 02:33:38;;;;;;;2.53;1.70;;;;;;;4.84;69.14;99136.09;3132326;28;20044;-66
2022/12/13 02:35:18;;;;;;;3.08;1.95;;;;;;;4.81;68.95;99133.63;3135843;28;20090;-65
2022/12/13 02:36:58;;;;;;;3.65;1.73;;;;;;;4.81;68.85;99146.53;3135545;28;20073;-66
2022/12/13 02:38:38;;;;;;;3.17;1.70;;;;;;;4.81;68.71;99141.38;3146469;28;20063;-65
2022/12/13 02:40:16;;;;;;;2.70;1.70;;;;;;;4.30;68.84;99075.94;3135443;28;20401;-65
2022/12/13 02:41:50;;;;;;;3.42;1.90;;;;;;;4.79;68.47;99141.41;3135388;28;20526;-66
2022/12/13 02:43:24;;;;;;;;;;;;;;;4.73;68.36;99145.03;3136381;28;20504;-64
2022/12/13 02:45:02;;;;;;;4.85;2.00;;;;;;;4.64;68.46;99127.25;3135266;28;20521;-66
2022/12/13 02:46:41;;;;;;;2.78;1.80;;;;;;;4.72;68.26;99139.91;3135306;28;20661;-65
2022/12/13 02:48:17;;;;;;;3.70;1.65;;;;;;;4.72;68.17;99145.06;3134520;28;20044;-66
2022/12/13 02:49:52;;;;;;;3.08;1.95;;;;;;;4.73;68.23;99127.00;3134249;28;20130;-65
2022/12/13 02:51:27;;;;;;;10.15;2.33;;;;;;;4.71;67.97;99126.19;3134106;28;20139;-66
2022/12/13 02:53:01;;;;;;;3.15;1.88;;;;;;;4.70;67.97;99134.81;3133982;28;20051;-64
2022/12/13 02:54:33;;;;;;;3.47;1.65;;;;;;;4.68;67.91;99131.44;3134992;28;20049;-64
2022/12/13 02:56:06;;;;;;;2.65;2.00;;;;;;;4.68;67.90;99131.44;3134861;28;20618;-64
2022/12/13 02:57:41;;;;;;;3.40;2.10;;;;;;;4.67;67.69;99137.47;3135930;28;20408;-65
2022/12/13 02:59:13;;;;;;;2.63;1.60;;;;;;;4.67;67.71;99144.38;3134618;28;20048;-65
2022/12/13 03:00:57;;;;;;;4.47;2.47;;;;;;;4.67;67.69;99145.22;3134985;28;20458;-65
2022/12/13 03:02:42;;;;;;;4.60;2.22;;;;;;;4.66;67.74;99153.00;3123101;28;20358;-65
2022/12/13 03:04:28;;;;;;;3.38;1.90;;;;;;;4.66;67.54;99155.59;3123141;28;20165;-65
2022/12/13 03:08:18;;;;;;;3.25;2.00;;;;;;;4.49;67.10;99138.91;3131614;28;20439;-65
2022/12/13 03:09:59;;;;;;;5.60;2.30;;;;;;;4.39;67.06;99123.78;3134719;28;20460;-65
2022/12/13 03:13:38;;;;;;;3.22;2.20;;;;;;;4.59;66.89;99154.94;3135540;28;20389;-64
2022/12/13 03:15:16;;;;;;;4.78;2.40;;;;;;;4.49;66.85;99145.78;3134395;28;20889;-64
2022/12/13 03:16:52;;;;;;;3.50;2.17;;;;;;;4.60;66.84;99160.94;3134768;28;20053;-65
2022/12/13 03:18:28;;;;;;;3.42;2.03;;;;;;;4.62;66.59;99164.31;3123849;28;20592;-65
2022/12/13 03:20:01;;;;;;;4.85;2.38;;;;;;;4.55;66.53;99148.19;3133912;28;20370;-65
2022/12/13 03:21:39;;;;;;;3.40;1.88;;;;;;;4.61;66.49;99163.47;3143879;28;20047;-65
2022/12/13 03:23:12;;;;;;;4.05;2.35;;;;;;;4.64;66.43;99170.25;3143991;28;20091;-66
2022/12/13 03:24:43;;;;;;;3.37;1.80;;;;;;;4.64;66.34;99168.50;3144240;28;20094;-65
2022/12/13 03:26:20;;;;;;;3.05;1.70;;;;;;;4.64;66.32;99160.78;3144269;28;20406;-67
2022/12/13 03:27:52;;;;;;;2.75;1.60;;;;;;;4.64;66.27;99165.09;3144066;28;20091;-66
2022/12/13 03:29:24;;;;;;;4.85;1.80;;;;;;;4.65;66.33;99167.66;3144138;28;20044;-66
2022/12/13 03:30:56;;;;;;;4.18;2.20;;;;;;;3.86;66.21;99053.19;3144188;28;20436;-66
2022/12/13 03:32:28;;;;;;;3.15;1.80;;;;;;;4.62;66.56;99166.91;3143920;28;20128;-66
2022/12/13 03:34:01;;;;;;;3.35;2.15;;;;;;;4.63;66.78;99164.25;3143922;28;20070;-66
2022/12/13 03:35:34;;;;;;;3.42;2.08;;;;;;;4.66;66.89;99174.47;3144039;28;20060;-66
2022/12/13 03:37:06;;;;;;;4.78;2.42;;;;;;;4.65;66.88;99167.66;3146456;28;20048;-65
2022/12/13 03:38:38;;;;;;;3.65;2.58;;;;;;;4.69;67.16;99166.66;3153770;28;20048;-66
2022/12/13 03:40:10;;;;;;;3.50;1.63;;;;;;;4.55;67.16;99143.03;3143845;28;20537;-66
2022/12/13 03:41:42;;;;;;;3.05;1.88;;;;;;;4.67;67.30;99162.44;3143956;28;20306;-66
2022/12/13 03:43:14;;;;;;;3.05;1.88;;;;;;;4.54;67.37;99144.75;3131930;28;20060;-66
2022/12/13 03:44:46;;;;;;;3.42;1.92;;;;;;;4.66;67.51;99150.44;3142599;28;20132;-66
2022/12/13 03:46:18;;;;;;;2.97;2.15;;;;;;;4.65;67.50;99153.91;3143843;28;20049;-66
2022/12/13 03:47:50;;;;;;;3.38;2.13;;;;;;;4.59;67.41;99142.06;3143875;28;20052;-66
2022/12/13 03:49:23;;;;;;;3.03;1.90;;;;;;;4.58;67.09;99137.75;3144243;28;20118;-66
2022/12/13 03:50:55;;;;;;;2.47;1.77;;;;;;;4.60;66.90;99145.47;3143741;28;20055;-66
2022/12/13 03:52:27;;;;;;;4.55;2.40;;;;;;;4.53;66.86;99137.94;3143378;28;20056;-65
2022/12/13 03:53:59;;;;;;;3.72;2.08;;;;;;;4.54;66.83;99139.59;3143948;28;20426;-65
2022/12/13 03:55:30;;;;;;;4.35;2.40;;;;;;;4.53;66.93;99143.09;3144147;28;20147;-67
2022/12/13 03:57:02;;;;;;;3.08;2.00;;;;;;;4.59;66.82;99136.91;3143953;28;20086;-66
2022/12/13 03:58:35;;;;;;;3.10;1.67;;;;;;;4.44;66.38;99130.47;3144036;28;20056;-67
2022/12/13 04:00:08;;;;;;;2.85;1.60;;;;;;;4.54;66.42;99143.91;3143712;28;20060;-66
2022/12/13 04:01:40;;;;;;;3.50;1.73;;;;;;;4.50;66.34;99138.03;3144101;28;20044;-66
2022/12/13 04:03:12;;;;;;;2.80;1.75;;;;;;;4.55;66.23;99143.88;3143812;28;20048;-66
2022/12/13 04:04:45;;;;;;;2.97;1.75;;;;;;;4.55;66.02;99141.31;3143854;28;20828;-66
2022/12/13 04:06:17;;;;;;;5.18;1.85;;;;;;;4.53;65.99;99140.50;3144001;28;20118;-66
2022/12/13 04:07:49;;;;;;;3.45;1.85;;;;;;;4.53;65.67;99142.25;3143396;28;20102;-67
2022/12/13 04:09:21;;;;;;;4.35;2.20;;;;;;;4.49;65.57;99133.75;3143778;28;20437;-67
2022/12/13 04:10:53;;;;;;;2.47;1.50;;;;;;;4.11;65.13;99075.63;3143572;28;20049;-67
2022/12/13 04:14:13;;;;;;;4.53;1.83;;;;;;;4.47;65.24;99148.44;3146460;28;20052;-67
2022/12/13 04:15:47;;;;;;;3.67;2.35;;;;;;;4.47;65.17;99147.59;3146113;28;20059;-66
2022/12/13 04:17:19;;;;;;;4.15;1.80;;;;;;;4.47;65.34;99145.84;3145819;28;20045;-67
2022/12/13 04:18:51;;;;;;;4.43;2.20;;;;;;;4.45;65.31;99149.38;3146708;28;20048;-65
2022/12/13 04:20:24;;;;;;;2.50;1.60;;;;;;;4.48;65.06;99164.75;3146215;28;20150;-68
2022/12/13 04:21:56;;;;;;;3.55;2.47;;;;;;;4.45;64.97;99167.41;3145794;28;20045;-66
2022/12/13 04:23:28;;;;;;;4.32;1.90;;;;;;;4.43;65.31;99158.88;3145223;28;20079;-66
2022/12/13 04:25:00;;;;;;;3.85;2.17;;;;;;;4.27;64.92;99135.31;3143903;28;20049;-66
2022/12/13 04:26:32;;;;;;;5.35;2.58;;;;;;;4.43;65.24;99166.59;3146004;28;20515;-66
2022/12/13 04:28:04;;;;;;;5.40;2.50;;;;;;;4.45;65.04;99167.41;3146166;28;20056;-65
2022/12/13 04:29:36;;;;;;;4.15;2.15;;;;;;;4.45;64.91;99177.72;3146105;28;20514;-65
2022/12/13 04:31:08;;;;;;;3.22;2.35;;;;;;;4.45;64.91;99185.47;3145987;28;20060;-66
2022/12/13 04:32:40;;;;;;;4.97;2.60;;;;;;;4.43;64.57;99175.19;3146061;28;20044;-67
2022/12/13 04:34:11;;;;;;;4.13;2.40;;;;;;;4.43;64.55;99179.50;3145891;28;20044;-66
2022/12/13 04:35:45;;;;;;;5.57;2.15;;;;;;;4.25;64.52;99148.22;3145785;28;20052;-66
2022/12/13 04:37:17;;;;;;;4.93;2.13;;;;;;;4.37;64.52;99170.22;3150348;28;20052;-65
2022/12/13 04:38:48;;;;;;;4.47;2.35;;;;;;;4.42;64.71;99175.25;3154175;28;20074;-67
2022/12/13 04:40:21;;;;;;;5.40;2.85;;;;;;;4.41;64.89;99178.69;3145217;28;20101;-66
2022/12/13 04:41:53;;;;;;;5.00;2.58;;;;;;;4.42;64.98;99182.97;3145994;28;20053;-67
2022/12/13 04:43:24;;;;;;;3.95;2.63;;;;;;;4.40;65.19;99195.06;3146293;28;20052;-66
2022/12/13 04:44:56;;;;;;;5.03;2.75;;;;;;;4.42;65.28;99182.97;3141988;28;20044;-65
2022/12/13 04:46:28;;;;;;;4.50;2.28;;;;;;;4.35;65.23;99172.00;3145933;28;20048;-67
2022/12/13 04:48:00;;;;;;;5.65;2.70;;;;;;;4.36;65.20;99185.75;3145862;28;20414;-65
2022/12/13 04:49:33;;;;;;;4.05;2.30;;;;;;;4.34;65.29;99183.19;3145212;28;20194;-65
2022/12/13 04:51:06;;;;;;;3.57;2.37;;;;;;;4.42;65.24;99198.44;3145937;28;20510;-66
2022/12/13 04:52:38;;;;;;;;;;;;;;;4.34;65.16;99194.34;3146115;28;20321;-66
2022/12/13 04:54:10;;;;;;;5.50;2.47;;;;;;;4.34;65.22;99203.81;3145813;28;20355;-66
2022/12/13 04:55:42;;;;;;;5.55;3.17;;;;;;;4.36;65.17;99196.06;3145978;28;20587;-67
2022/12/13 04:57:14;;;;;;;6.88;2.58;;;;;;;3.45;65.23;99056.13;3145802;28;20056;-66
2022/12/13 04:58:46;;;;;;;3.42;2.15;;;;;;;4.34;64.87;99204.66;3145665;28;20049;-66
2022/12/13 05:00:20;;;;;;;5.63;2.83;;;;;;;4.30;64.90;99203.06;3145508;28;20106;-67
2022/12/13 05:01:51;;;;;;;7.22;2.95;;;;;;;4.29;64.71;99216.00;3145642;28;20048;-67
2022/12/13 05:03:23;;;;;;;5.32;2.53;;;;;;;4.32;64.80;99213.34;3145533;28;20059;-67
2022/12/13 05:04:55;;;;;;;3.67;2.25;;;;;;;4.29;64.53;99214.28;3145719;28;20044;-67
2022/12/13 05:06:29;;;;;;;3.85;2.35;;;;;;;4.30;64.69;99218.53;3145895;28;20052;-67
2022/12/13 05:08:00;;;;;;;4.43;2.40;;;;;;;4.30;64.70;99213.38;3145112;28;20053;-67
2022/12/13 05:09:32;;;;;;;4.72;2.60;;;;;;;4.34;64.53;99233.00;3145129;28;20110;-66
2022/12/13 05:11:05;;;;;;;4.32;2.42;;;;;;;4.18;64.32;99205.16;3145734;28;20048;-66
2022/12/13 05:12:36;;;;;;;6.90;2.40;;;;;;;4.35;64.27;99231.31;3145548;28;20505;-66
2022/12/13 05:14:08;;;;;;;5.38;3.08;;;;;;;4.34;64.26;99233.00;3145337;28;20048;-66
2022/12/13 05:15:40;;;;;;;5.50;2.10;;;;;;;4.35;64.26;99241.59;3145375;28;20052;-66
2022/12/13 05:17:12;;;;;;;5.18;2.17;;;;;;;4.37;64.25;99236.41;3145490;28;20114;-66
2022/12/13 05:18:44;;;;;;;4.53;2.30;;;;;;;4.21;64.08;99216.22;3145645;28;20049;-66
2022/12/13 05:20:16;;;;;;;4.70;2.65;;;;;;;4.37;63.78;99247.53;3145369;28;20486;-67
2022/12/13 05:21:49;;;;;;;4.75;2.53;;;;;;;4.38;63.79;99243.22;3145469;28;20063;-66
2022/12/13 05:23:23;;;;;;;4.13;2.60;;;;;;;4.39;63.64;99242.34;3145590;28;20053;-66
2022/12/13 05:24:55;;;;;;;;;;;;;;;4.31;63.74;99245.16;3145638;28;20511;-66
2022/12/13 05:26:27;;;;;;;5.57;2.67;;;;;;;4.24;63.77;99236.75;3145491;28;20370;-66
2022/12/13 05:27:58;;;;;;;4.70;2.42;;;;;;;4.35;64.02;99257.06;3145743;28;20056;-67
2022/12/13 05:29:30;;;;;;;4.65;2.65;;;;;;;4.29;63.67;99252.94;3145408;28;20040;-67
2022/12/13 05:31:07;;;;;;;4.22;2.42;;;;;;;4.36;63.66;99266.50;3145189;28;20406;-67
2022/12/13 05:32:39;;;;;;;4.43;2.45;;;;;;;4.34;63.66;99263.09;3145142;28;20100;-66
2022/12/13 05:34:11;;;;;;;4.32;2.33;;;;;;;4.36;63.49;99276.81;3145089;28;20052;-67
2022/12/13 05:35:42;;;;;;;6.57;2.90;;;;;;;4.23;63.34;99247.09;3145364;28;20056;-67
2022/12/13 05:37:15;;;;;;;5.95;2.58;;;;;;;4.28;63.17;99251.22;3148744;28;20721;-67
2022/12/13 05:38:47;;;;;;;3.30;2.42;;;;;;;4.29;63.02;99262.41;3153753;28;20044;-67
2022/12/13 05:40:19;;;;;;;4.10;2.40;;;;;;;4.30;62.82;99275.25;3145233;28;20080;-67
2022/12/13 05:41:51;;;;;;;3.90;2.40;;;;;;;4.30;62.63;99264.94;3145423;28;20048;-68
2022/12/13 05:43:25;;;;;;;4.65;2.63;;;;;;;4.30;62.75;99266.66;3145745;28;20044;-67
2022/12/13 05:44:57;;;;;;;5.05;2.40;;;;;;;4.32;62.68;99275.22;3141477;28;20049;-67
2022/12/13 05:46:29;;;;;;;4.43;2.83;;;;;;;4.31;62.45;99276.06;3145036;28;20078;-67
2022/12/13 05:48:01;;;;;;;4.95;3.03;;;;;;;4.33;62.56;99275.16;3145209;28;20578;-65
2022/12/13 05:49:33;;;;;;;10.02;3.90;;;;;;;4.32;62.56;99282.94;3144937;28;20486;-69
2022/12/13 05:51:05;;;;;;;6.30;3.42;;;;;;;4.16;62.54;99256.72;3144997;28;20052;-66
2022/12/13 05:52:38;;;;;;;6.22;3.45;;;;;;;4.29;62.17;99280.44;3145103;28;20098;-66
2022/12/13 05:54:10;;;;;;;;;;;;;;;4.26;62.34;99290.81;3144604;28;20060;-66
2022/12/13 05:55:42;;;;;;;6.88;3.50;;;;;;;4.26;62.39;99293.41;3144134;28;19950;-67
2022/12/13 05:57:15;;;;;;;6.78;3.20;;;;;;;4.29;62.27;99295.91;3143772;28;20137;-66
2022/12/13 05:58:46;;;;;;;7.88;3.63;;;;;;;4.31;62.33;99304.44;3142797;28;20489;-66
2022/12/13 06:00:19;;;;;;;7.00;3.20;;;;;;;4.29;62.05;99306.22;3142946;28;20067;-65
2022/12/13 06:01:51;;;;;;;5.07;2.80;;;;;;;4.23;62.08;99298.63;3141505;28;20052;-66
2022/12/13 06:03:23;;;;;;;7.55;3.35;;;;;;;4.20;62.08;99307.31;3143800;28;20502;-66
2022/12/13 06:04:55;;;;;;;6.28;2.88;;;;;;;4.19;62.10;99309.94;3143393;28;20056;-65
2022/12/13 06:06:26;;;;;;;6.47;3.45;;;;;;;4.27;62.18;99316.56;3143118;28;20425;-65
2022/12/13 06:08:00;;;;;;;5.10;3.35;;;;;;;4.14;61.99;99294.59;3142733;28;20056;-66
2022/12/13 06:09:32;;;;;;;;;;;;;;;4.20;61.86;99314.19;3144175;28;20112;-67
2022/12/13 06:11:06;;;;;;;5.25;2.95;;;;;;;4.18;61.94;99316.81;3144257;28;20366;-68
2022/12/13 06:12:38;;;;;;;;;;;;;;;4.14;61.86;99324.66;3143798;28;20075;-65
2022/12/13 06:14:10;;;;;;;7.30;3.42;;;;;;;4.14;61.67;99322.06;3144290;28;20321;-68
2022/12/13 06:15:41;;;;;;;8.30;3.92;;;;;;;4.16;61.79;99321.16;3144859;28;20056;-67
2022/12/13 06:17:13;;;;;;;7.82;4.03;;;;;;;4.16;61.66;99317.75;3142980;28;20048;-68
2022/12/13 06:18:45;;;;;;;10.43;4.47;;;;;;;4.16;61.73;99313.44;3144939;28;20052;-66
2022/12/13 06:20:17;;;;;;;10.88;4.78;;;;;;;4.23;61.58;99327.84;3150413;28;20058;-65
2022/12/13 06:21:50;;;;;;;9.88;4.70;;;;;;;4.25;61.62;99326.06;3153000;28;20135;-67
2022/12/13 06:23:23;;;;;;;10.70;4.77;;;;;;;4.27;61.61;99331.19;3144771;28;20114;-67
2022/12/13 06:24:55;;;;;;;11.98;4.63;;;;;;;4.29;61.67;99335.41;3144831;28;20048;-66
2022/12/13 06:26:27;;;;;;;11.15;4.97;;;;;;;4.30;61.56;99334.53;3144595;28;20053;-68
2022/12/13 06:27:59;;;;;;;7.43;4.20;;;;;;;4.22;61.43;99333.88;3145159;28;20049;-69
2022/12/13 06:29:31;;;;;;;6.55;3.58;;;;;;;4.30;61.25;99344.84;3144339;28;20109;-66
2022/12/13 06:31:04;;;;;;;11.82;3.60;;;;;;;4.29;61.27;99352.63;3142397;28;20044;-67
2022/12/13 06:32:36;;;;;;;7.68;3.20;;;;;;;4.24;60.84;99342.41;3144703;28;20095;-69
2022/12/13 06:34:08;;;;;;;6.65;3.00;;;;;;;4.24;60.61;99352.72;3144456;28;20502;-70
2022/12/13 06:35:40;;;;;;;8.63;3.53;;;;;;;4.24;60.27;99349.31;3144508;28;20105;-67
2022/12/13 06:37:13;;;;;;;6.18;3.22;;;;;;;4.23;60.03;99356.22;3147950;28;20048;-70
2022/12/13 06:38:46;;;;;;;;;;;;;;;4.18;60.10;99362.38;3135031;28;20053;-74
2022/12/13 06:40:18;;;;;;;6.32;3.50;;;;;;;4.08;60.32;99338.53;3141808;28;19920;-73
2022/12/13 06:41:50;;;;;;;6.63;3.63;;;;;;;4.19;60.20;99352.00;3144279;28;20433;-72
2022/12/13 06:43:22;;;;;;;6.70;3.58;;;;;;;3.64;60.21;99264.13;3144600;28;20488;-73
2022/12/13 06:44:54;;;;;;;6.63;3.65;;;;;;;4.23;60.22;99361.38;3144235;28;20051;-72
2022/12/13 06:46:26;;;;;;;9.23;3.58;;;;;;;4.21;59.70;99368.28;3142095;28;20048;-71
2022/12/13 06:47:58;;;;;;;10.93;4.03;;;;;;;4.16;59.58;99346.09;3144523;28;20102;-73
2022/12/13 06:49:31;;;;;;;7.68;4.18;;;;;;;4.15;59.52;99350.41;3144443;28;20109;-66
2022/12/13 06:51:04;;;;;;;10.32;3.50;;;;;;;4.17;59.58;99353.78;3144398;28;20719;-68
2022/12/13 06:52:36;;;;;;;;;;;;;;;4.15;59.58;99360.72;3145052;28;20048;-68
2022/12/13 06:54:09;;;;;;;9.50;3.90;;;;;;;4.14;59.81;99363.31;3137595;28;19921;-67
2022/12/13 06:55:41;;;;;;;8.57;4.18;;;;;;;4.14;59.91;99358.16;3136992;28;20058;-67
2022/12/13 06:57:13;;;;;;;10.30;4.38;;;;;;;3.98;59.88;99335.38;3144904;28;20048;-68
2022/12/13 06:58:45;;;;;;;7.90;4.30;;;;;;;4.17;59.90;99365.81;3144438;28;20059;-68
2022/12/13 07:00:17;;;;;;;9.52;4.10;;;;;;;4.18;60.05;99375.25;3137341;28;20630;-68
2022/12/13 07:01:49;;;;;;;9.32;4.25;;;;;;;4.19;60.18;99380.34;3122196;28;20063;-69
2022/12/13 07:03:21;;;;;;;7.00;3.80;;;;;;;3.69;60.14;99302.63;3130627;28;20097;-69
2022/12/13 07:04:55;;;;;;;10.82;3.97;;;;;;;4.16;60.28;99387.31;3128936;28;20052;-69
2022/12/13 07:06:26;;;;;;;;;;;;;;;4.08;60.23;99382.34;3135343;28;20217;-69
2022/12/13 07:07:58;;;;;;;9.50;4.45;;;;;;;3.97;60.67;99366.34;3135044;28;20285;-68
2022/12/13 07:09:33;;;;;;;8.15;3.85;;;;;;;4.15;60.52;99386.47;3135198;28;20060;-67
2022/12/13 07:11:05;;;;;;;9.07;3.95;;;;;;;4.17;60.47;99384.72;3134582;28;20789;-69
2022/12/13 07:12:38;;;;;;;10.70;5.75;;;;;;;4.17;60.19;99389.88;3128574;28;20110;-69
2022/12/13 07:14:11;;;;;;;10.00;4.53;;;;;;;4.17;60.29;99391.56;3135003;28;20060;-68
2022/12/13 07:15:43;;;;;;;12.40;4.22;;;;;;;4.14;60.23;99387.38;3135051;28;20079;-69
2022/12/13 07:17:15;;;;;;;9.73;4.67;;;;;;;4.18;60.35;99396.72;3134593;28;20450;-69
2022/12/13 07:18:47;;;;;;;11.43;3.83;;;;;;;4.18;60.23;99388.13;3135247;28;20048;-69
2022/12/13 07:20:21;;;;;;;9.77;4.25;;;;;;;4.21;60.42;99394.06;3141009;28;20105;-69
2022/12/13 07:21:53;;;;;;;10.65;4.57;;;;;;;4.09;60.35;99366.03;3135168;28;20481;-70
2022/12/13 07:23:26;;;;;;;8.70;3.83;;;;;;;3.87;60.44;99337.38;3134890;28;20538;-69
2022/12/13 07:25:00;;;;;;;8.68;4.35;;;;;;;4.17;60.54;99382.13;3135024;28;20044;-70
2022/12/13 07:26:32;;;;;;;10.48;4.05;;;;;;;4.28;60.60;99397.31;3134098;28;20053;-69
2022/12/13 07:28:06;;;;;;;9.00;4.72;;;;;;;4.33;60.49;99400.63;3134459;28;20581;-68
2022/12/13 07:29:38;;;;;;;11.20;4.70;;;;;;;4.38;60.42;99401.34;3133839;28;20052;-69
2022/12/13 07:31:11;;;;;;;9.00;4.10;;;;;;;4.39;60.26;99404.78;3134449;28;20045;-68
2022/12/13 07:32:43;;;;;;;8.45;3.92;;;;;;;4.37;59.93;99403.97;3134562;28;20345;-68
2022/12/13 07:34:15;;;;;;;9.43;4.30;;;;;;;4.34;59.95;99407.47;3134203;28;20210;-69